sensor_id;sensor_type;location;lat;lon;timestamp;P1;durP1;ratioP1;P2;durP2;ratioP2
81896;SDS011;71360;43.506;1.500;2024-01-10T00:00:14;41.73;;;21.90;;
81896;SDS011;71360;43.506;1.500;2024-01-10T00:02:40;40.97;;;20.93;;
81896;SDS011;71360;43.506;1.500;2024-01-10T00:05:05;43.20;;;23.57;;
81896;SDS011;71360;43.506;1.500;2024-01-10T00:07:31;42.03;;;22.65;;
81896;SDS011;71360;43.506;1.500;2024-01-10T00:09:57;39.43;;;21.40;;
81896;SDS011;71360;43.506;1.500;2024-01-10T00:12:24;35.45;;;19.42;;
81896;SDS011;71360;43.506;1.500;2024-01-10T00:14:50;36.00;;;19.73;;
81896;SDS011;71360;43.506;1.500;2024-01-10T00:17:15;39.00;;;19.92;;
81896;SDS011;71360;43.506;1.500;2024-01-10T00:19:41;34.23;;;17.57;;
81896;SDS011;71360;43.506;1.500;2024-01-10T00:22:06;35.70;;;17.83;;
81896;SDS011;71360;43.506;1.500;2024-01-10T00:24:32;32.97;;;14.90;;
81896;SDS011;71360;43.506;1.500;2024-01-10T00:26:57;33.00;;;13.87;;
81896;SDS011;71360;43.506;1.500;2024-01-10T00:29:22;32.13;;;14.10;;
81896;SDS011;71360;43.506;1.500;2024-01-10T00:31:48;33.07;;;14.13;;
81896;SDS011;71360;43.506;1.500;2024-01-10T00:34:13;32.57;;;14.40;;
81896;SDS011;71360;43.506;1.500;2024-01-10T00:36:39;34.70;;;15.60;;
81896;SDS011;71360;43.506;1.500;2024-01-10T00:39:04;34.30;;;15.55;;
81896;SDS011;71360;43.506;1.500;2024-01-10T00:41:30;37.60;;;17.67;;
81896;SDS011;71360;43.506;1.500;2024-01-10T00:43:55;37.57;;;18.00;;
81896;SDS011;71360;43.506;1.500;2024-01-10T00:46:20;39.80;;;17.53;;
81896;SDS011;71360;43.506;1.500;2024-01-10T00:48:46;37.38;;;17.23;;
81896;SDS011;71360;43.506;1.500;2024-01-10T00:51:11;35.30;;;15.90;;
81896;SDS011;71360;43.506;1.500;2024-01-10T00:53:37;36.17;;;15.80;;
81896;SDS011;71360;43.506;1.500;2024-01-10T00:56:05;32.90;;;15.27;;
81896;SDS011;71360;43.506;1.500;2024-01-10T00:58:31;31.15;;;14.68;;
81896;SDS011;71360;43.506;1.500;2024-01-10T01:00:57;31.57;;;14.53;;
81896;SDS011;71360;43.506;1.500;2024-01-10T01:03:22;31.47;;;14.20;;
81896;SDS011;71360;43.506;1.500;2024-01-10T01:05:48;28.50;;;13.77;;
81896;SDS011;71360;43.506;1.500;2024-01-10T01:08:13;31.77;;;13.65;;
81896;SDS011;71360;43.506;1.500;2024-01-10T01:10:38;30.07;;;13.70;;
81896;SDS011;71360;43.506;1.500;2024-01-10T01:13:04;31.67;;;14.07;;
81896;SDS011;71360;43.506;1.500;2024-01-10T01:15:29;29.37;;;13.60;;
81896;SDS011;71360;43.506;1.500;2024-01-10T01:17:55;32.70;;;15.37;;
81896;SDS011;71360;43.506;1.500;2024-01-10T01:20:20;33.70;;;15.30;;
81896;SDS011;71360;43.506;1.500;2024-01-10T01:22:46;33.33;;;15.30;;
81896;SDS011;71360;43.506;1.500;2024-01-10T01:25:11;33.23;;;14.77;;
81896;SDS011;71360;43.506;1.500;2024-01-10T01:27:36;33.80;;;15.77;;
81896;SDS011;71360;43.506;1.500;2024-01-10T01:30:02;33.42;;;15.40;;
81896;SDS011;71360;43.506;1.500;2024-01-10T01:32:28;33.10;;;14.83;;
81896;SDS011;71360;43.506;1.500;2024-01-10T01:34:53;34.03;;;14.88;;
81896;SDS011;71360;43.506;1.500;2024-01-10T01:37:19;32.97;;;15.13;;
81896;SDS011;71360;43.506;1.500;2024-01-10T01:39:44;32.97;;;16.17;;
81896;SDS011;71360;43.506;1.500;2024-01-10T01:42:10;36.43;;;15.77;;
81896;SDS011;71360;43.506;1.500;2024-01-10T01:44:35;36.25;;;16.77;;
81896;SDS011;71360;43.506;1.500;2024-01-10T01:47:01;31.97;;;14.83;;
81896;SDS011;71360;43.506;1.500;2024-01-10T01:49:28;34.20;;;16.48;;
81896;SDS011;71360;43.506;1.500;2024-01-10T01:51:54;32.88;;;15.85;;
81896;SDS011;71360;43.506;1.500;2024-01-10T01:54:20;32.00;;;15.93;;
81896;SDS011;71360;43.506;1.500;2024-01-10T01:56:46;34.67;;;15.98;;
81896;SDS011;71360;43.506;1.500;2024-01-10T01:59:11;33.93;;;16.30;;
81896;SDS011;71360;43.506;1.500;2024-01-10T02:01:37;35.50;;;17.10;;
81896;SDS011;71360;43.506;1.500;2024-01-10T02:04:04;36.08;;;16.65;;
81896;SDS011;71360;43.506;1.500;2024-01-10T02:06:29;37.83;;;16.47;;
81896;SDS011;71360;43.506;1.500;2024-01-10T02:08:55;33.40;;;16.17;;
81896;SDS011;71360;43.506;1.500;2024-01-10T02:11:21;36.20;;;17.08;;
81896;SDS011;71360;43.506;1.500;2024-01-10T02:13:48;35.33;;;16.88;;
81896;SDS011;71360;43.506;1.500;2024-01-10T02:16:14;34.60;;;16.10;;
81896;SDS011;71360;43.506;1.500;2024-01-10T02:18:40;32.37;;;15.23;;
81896;SDS011;71360;43.506;1.500;2024-01-10T02:21:05;33.17;;;16.10;;
81896;SDS011;71360;43.506;1.500;2024-01-10T02:23:31;32.17;;;15.63;;
81896;SDS011;71360;43.506;1.500;2024-01-10T02:25:56;34.90;;;15.03;;
81896;SDS011;71360;43.506;1.500;2024-01-10T02:28:22;33.53;;;15.27;;
81896;SDS011;71360;43.506;1.500;2024-01-10T02:30:51;28.88;;;13.15;;
81896;SDS011;71360;43.506;1.500;2024-01-10T02:33:17;27.80;;;12.98;;
81896;SDS011;71360;43.506;1.500;2024-01-10T02:35:43;27.67;;;12.10;;
81896;SDS011;71360;43.506;1.500;2024-01-10T02:38:08;25.23;;;11.48;;
81896;SDS011;71360;43.506;1.500;2024-01-10T02:40:34;25.47;;;11.10;;
81896;SDS011;71360;43.506;1.500;2024-01-10T02:42:59;25.87;;;10.90;;
81896;SDS011;71360;43.506;1.500;2024-01-10T02:45:25;23.60;;;10.80;;
81896;SDS011;71360;43.506;1.500;2024-01-10T02:47:50;23.70;;;10.93;;
81896;SDS011;71360;43.506;1.500;2024-01-10T02:50:16;24.20;;;11.50;;
81896;SDS011;71360;43.506;1.500;2024-01-10T02:52:41;27.77;;;12.03;;
81896;SDS011;71360;43.506;1.500;2024-01-10T02:55:07;27.15;;;12.30;;
81896;SDS011;71360;43.506;1.500;2024-01-10T02:57:32;27.70;;;12.80;;
81896;SDS011;71360;43.506;1.500;2024-01-10T02:59:58;28.57;;;12.73;;
81896;SDS011;71360;43.506;1.500;2024-01-10T03:02:23;25.67;;;12.30;;
81896;SDS011;71360;43.506;1.500;2024-01-10T03:04:49;27.13;;;12.60;;
81896;SDS011;71360;43.506;1.500;2024-01-10T03:07:15;28.83;;;13.33;;
81896;SDS011;71360;43.506;1.500;2024-01-10T03:09:40;33.30;;;13.90;;
81896;SDS011;71360;43.506;1.500;2024-01-10T03:12:06;31.17;;;14.10;;
81896;SDS011;71360;43.506;1.500;2024-01-10T03:14:32;30.30;;;15.00;;
81896;SDS011;71360;43.506;1.500;2024-01-10T03:16:59;33.47;;;15.73;;
81896;SDS011;71360;43.506;1.500;2024-01-10T03:19:24;33.75;;;15.65;;
81896;SDS011;71360;43.506;1.500;2024-01-10T03:21:50;31.87;;;15.07;;
81896;SDS011;71360;43.506;1.500;2024-01-10T03:24:16;33.85;;;14.70;;
81896;SDS011;71360;43.506;1.500;2024-01-10T03:26:41;30.30;;;13.67;;
81896;SDS011;71360;43.506;1.500;2024-01-10T03:29:08;30.08;;;13.77;;
81896;SDS011;71360;43.506;1.500;2024-01-10T03:31:33;27.43;;;13.00;;
81896;SDS011;71360;43.506;1.500;2024-01-10T03:33:59;29.13;;;12.90;;
81896;SDS011;71360;43.506;1.500;2024-01-10T03:36:24;25.37;;;11.90;;
81896;SDS011;71360;43.506;1.500;2024-01-10T03:38:49;28.88;;;12.57;;
81896;SDS011;71360;43.506;1.500;2024-01-10T03:41:16;27.47;;;11.73;;
81896;SDS011;71360;43.506;1.500;2024-01-10T03:43:42;25.88;;;11.88;;
81896;SDS011;71360;43.506;1.500;2024-01-10T03:46:08;24.70;;;11.75;;
81896;SDS011;71360;43.506;1.500;2024-01-10T03:48:34;23.73;;;10.98;;
81896;SDS011;71360;43.506;1.500;2024-01-10T03:50:59;24.40;;;11.00;;
81896;SDS011;71360;43.506;1.500;2024-01-10T03:53:25;22.57;;;10.63;;
81896;SDS011;71360;43.506;1.500;2024-01-10T03:55:50;23.87;;;11.17;;
81896;SDS011;71360;43.506;1.500;2024-01-10T03:58:16;24.60;;;11.20;;
81896;SDS011;71360;43.506;1.500;2024-01-10T04:00:41;23.87;;;10.67;;
81896;SDS011;71360;43.506;1.500;2024-01-10T04:03:06;22.73;;;10.10;;
81896;SDS011;71360;43.506;1.500;2024-01-10T04:05:32;24.03;;;11.00;;
81896;SDS011;71360;43.506;1.500;2024-01-10T04:07:57;22.00;;;10.07;;
81896;SDS011;71360;43.506;1.500;2024-01-10T04:10:23;22.73;;;10.40;;
81896;SDS011;71360;43.506;1.500;2024-01-10T04:12:49;22.40;;;10.53;;
81896;SDS011;71360;43.506;1.500;2024-01-10T04:15:15;25.00;;;11.88;;
81896;SDS011;71360;43.506;1.500;2024-01-10T04:17:42;26.45;;;12.95;;
81896;SDS011;71360;43.506;1.500;2024-01-10T04:20:08;31.53;;;14.77;;
81896;SDS011;71360;43.506;1.500;2024-01-10T04:22:34;29.40;;;14.35;;
81896;SDS011;71360;43.506;1.500;2024-01-10T04:25:00;31.43;;;14.97;;
81896;SDS011;71360;43.506;1.500;2024-01-10T04:27:27;29.95;;;14.27;;
81896;SDS011;71360;43.506;1.500;2024-01-10T04:29:53;32.42;;;15.40;;
81896;SDS011;71360;43.506;1.500;2024-01-10T04:32:18;31.42;;;14.52;;
81896;SDS011;71360;43.506;1.500;2024-01-10T04:34:44;28.10;;;13.87;;
81896;SDS011;71360;43.506;1.500;2024-01-10T04:37:10;28.17;;;14.15;;
81896;SDS011;71360;43.506;1.500;2024-01-10T04:39:35;29.17;;;13.83;;
81896;SDS011;71360;43.506;1.500;2024-01-10T04:42:03;26.42;;;13.00;;
81896;SDS011;71360;43.506;1.500;2024-01-10T04:44:28;25.57;;;12.37;;
81896;SDS011;71360;43.506;1.500;2024-01-10T04:46:54;26.27;;;12.82;;
81896;SDS011;71360;43.506;1.500;2024-01-10T04:49:19;32.13;;;13.07;;
81896;SDS011;71360;43.506;1.500;2024-01-10T04:51:46;26.37;;;11.87;;
81896;SDS011;71360;43.506;1.500;2024-01-10T04:54:11;26.02;;;12.55;;
81896;SDS011;71360;43.506;1.500;2024-01-10T04:56:37;27.30;;;12.57;;
81896;SDS011;71360;43.506;1.500;2024-01-10T04:59:03;26.00;;;12.95;;
81896;SDS011;71360;43.506;1.500;2024-01-10T05:01:28;28.80;;;13.27;;
81896;SDS011;71360;43.506;1.500;2024-01-10T05:03:54;28.10;;;13.20;;
81896;SDS011;71360;43.506;1.500;2024-01-10T05:06:20;28.37;;;13.43;;
81896;SDS011;71360;43.506;1.500;2024-01-10T05:08:45;29.40;;;13.57;;
81896;SDS011;71360;43.506;1.500;2024-01-10T05:11:11;27.57;;;12.43;;
81896;SDS011;71360;43.506;1.500;2024-01-10T05:13:37;27.52;;;12.73;;
81896;SDS011;71360;43.506;1.500;2024-01-10T05:16:04;25.80;;;12.25;;
81896;SDS011;71360;43.506;1.500;2024-01-10T05:18:30;27.67;;;13.75;;
81896;SDS011;71360;43.506;1.500;2024-01-10T05:20:55;26.40;;;13.17;;
81896;SDS011;71360;43.506;1.500;2024-01-10T05:23:21;26.07;;;12.43;;
81896;SDS011;71360;43.506;1.500;2024-01-10T05:25:46;24.97;;;12.17;;
81896;SDS011;71360;43.506;1.500;2024-01-10T05:28:12;25.23;;;11.95;;
81896;SDS011;71360;43.506;1.500;2024-01-10T05:30:37;27.27;;;11.90;;
81896;SDS011;71360;43.506;1.500;2024-01-10T05:33:03;28.40;;;12.27;;
81896;SDS011;71360;43.506;1.500;2024-01-10T05:35:28;28.63;;;13.93;;
81896;SDS011;71360;43.506;1.500;2024-01-10T05:37:54;31.67;;;14.30;;
81896;SDS011;71360;43.506;1.500;2024-01-10T05:40:20;31.13;;;14.33;;
81896;SDS011;71360;43.506;1.500;2024-01-10T05:42:45;30.63;;;14.68;;
81896;SDS011;71360;43.506;1.500;2024-01-10T05:45:11;29.55;;;14.50;;
81896;SDS011;71360;43.506;1.500;2024-01-10T05:47:36;29.40;;;14.30;;
81896;SDS011;71360;43.506;1.500;2024-01-10T05:50:02;32.43;;;15.83;;
81896;SDS011;71360;43.506;1.500;2024-01-10T05:52:31;30.85;;;15.05;;
81896;SDS011;71360;43.506;1.500;2024-01-10T05:54:57;29.98;;;14.95;;
81896;SDS011;71360;43.506;1.500;2024-01-10T05:57:22;31.53;;;14.77;;
81896;SDS011;71360;43.506;1.500;2024-01-10T05:59:48;28.67;;;13.80;;
81896;SDS011;71360;43.506;1.500;2024-01-10T06:02:13;26.10;;;12.57;;
81896;SDS011;71360;43.506;1.500;2024-01-10T06:04:41;26.30;;;12.40;;
81896;SDS011;71360;43.506;1.500;2024-01-10T06:07:07;28.20;;;13.85;;
81896;SDS011;71360;43.506;1.500;2024-01-10T06:09:32;26.83;;;13.40;;
81896;SDS011;71360;43.506;1.500;2024-01-10T06:11:58;27.55;;;13.50;;
81896;SDS011;71360;43.506;1.500;2024-01-10T06:14:23;27.90;;;13.20;;
81896;SDS011;71360;43.506;1.500;2024-01-10T06:16:49;25.37;;;12.10;;
81896;SDS011;71360;43.506;1.500;2024-01-10T06:19:14;28.27;;;13.50;;
81896;SDS011;71360;43.506;1.500;2024-01-10T06:21:39;28.25;;;13.68;;
81896;SDS011;71360;43.506;1.500;2024-01-10T06:24:05;27.00;;;12.70;;
81896;SDS011;71360;43.506;1.500;2024-01-10T06:26:30;27.53;;;13.40;;
81896;SDS011;71360;43.506;1.500;2024-01-10T06:28:56;28.10;;;12.93;;
81896;SDS011;71360;43.506;1.500;2024-01-10T06:31:21;26.93;;;12.57;;
81896;SDS011;71360;43.506;1.500;2024-01-10T06:33:47;25.77;;;12.07;;
81896;SDS011;71360;43.506;1.500;2024-01-10T06:36:12;24.50;;;11.97;;
81896;SDS011;71360;43.506;1.500;2024-01-10T06:38:38;26.80;;;12.10;;
81896;SDS011;71360;43.506;1.500;2024-01-10T06:41:10;24.77;;;12.07;;
81896;SDS011;71360;43.506;1.500;2024-01-10T06:43:39;24.20;;;12.27;;
81896;SDS011;71360;43.506;1.500;2024-01-10T06:46:04;24.92;;;12.20;;
81896;SDS011;71360;43.506;1.500;2024-01-10T06:48:30;24.07;;;11.87;;
81896;SDS011;71360;43.506;1.500;2024-01-10T06:50:56;24.20;;;11.48;;
81896;SDS011;71360;43.506;1.500;2024-01-10T06:53:22;25.17;;;11.17;;
81896;SDS011;71360;43.506;1.500;2024-01-10T06:55:47;24.70;;;11.90;;
81896;SDS011;71360;43.506;1.500;2024-01-10T06:58:13;23.03;;;10.70;;
81896;SDS011;71360;43.506;1.500;2024-01-10T07:00:38;24.10;;;11.60;;
81896;SDS011;71360;43.506;1.500;2024-01-10T07:03:04;28.80;;;11.57;;
81896;SDS011;71360;43.506;1.500;2024-01-10T07:05:30;24.77;;;11.77;;
81896;SDS011;71360;43.506;1.500;2024-01-10T07:07:57;24.38;;;11.52;;
81896;SDS011;71360;43.506;1.500;2024-01-10T07:10:23;24.27;;;12.43;;
81896;SDS011;71360;43.506;1.500;2024-01-10T07:12:55;25.25;;;13.05;;
81896;SDS011;71360;43.506;1.500;2024-01-10T07:15:21;23.30;;;11.50;;
81896;SDS011;71360;43.506;1.500;2024-01-10T07:17:47;23.53;;;11.57;;
81896;SDS011;71360;43.506;1.500;2024-01-10T07:20:13;26.65;;;11.90;;
81896;SDS011;71360;43.506;1.500;2024-01-10T07:22:38;25.10;;;11.43;;
81896;SDS011;71360;43.506;1.500;2024-01-10T07:25:09;21.98;;;10.82;;
81896;SDS011;71360;43.506;1.500;2024-01-10T07:27:39;25.25;;;11.10;;
81896;SDS011;71360;43.506;1.500;2024-01-10T07:30:05;25.90;;;10.98;;
81896;SDS011;71360;43.506;1.500;2024-01-10T07:32:38;24.67;;;11.32;;
81896;SDS011;71360;43.506;1.500;2024-01-10T07:35:07;30.43;;;12.43;;
81896;SDS011;71360;43.506;1.500;2024-01-10T07:37:35;28.30;;;12.07;;
81896;SDS011;71360;43.506;1.500;2024-01-10T07:40:02;24.83;;;11.82;;
81896;SDS011;71360;43.506;1.500;2024-01-10T07:42:30;23.98;;;11.20;;
81896;SDS011;71360;43.506;1.500;2024-01-10T07:44:56;21.45;;;10.70;;
81896;SDS011;71360;43.506;1.500;2024-01-10T07:47:22;22.37;;;10.23;;
81896;SDS011;71360;43.506;1.500;2024-01-10T07:49:47;21.10;;;9.63;;
81896;SDS011;71360;43.506;1.500;2024-01-10T07:52:12;20.17;;;9.75;;
81896;SDS011;71360;43.506;1.500;2024-01-10T07:54:38;18.27;;;9.50;;
81896;SDS011;71360;43.506;1.500;2024-01-10T07:57:03;19.50;;;9.57;;
81896;SDS011;71360;43.506;1.500;2024-01-10T07:59:29;21.07;;;10.10;;
81896;SDS011;71360;43.506;1.500;2024-01-10T08:01:55;21.88;;;10.40;;
81896;SDS011;71360;43.506;1.500;2024-01-10T08:04:24;21.87;;;10.40;;
81896;SDS011;71360;43.506;1.500;2024-01-10T08:06:51;22.08;;;10.45;;
81896;SDS011;71360;43.506;1.500;2024-01-10T08:09:16;22.98;;;10.90;;
81896;SDS011;71360;43.506;1.500;2024-01-10T08:11:44;22.38;;;10.65;;
81896;SDS011;71360;43.506;1.500;2024-01-10T08:14:10;23.55;;;10.88;;
81896;SDS011;71360;43.506;1.500;2024-01-10T08:16:35;22.10;;;10.60;;
81896;SDS011;71360;43.506;1.500;2024-01-10T08:19:01;24.70;;;11.57;;
81896;SDS011;71360;43.506;1.500;2024-01-10T08:21:26;20.13;;;10.17;;
81896;SDS011;71360;43.506;1.500;2024-01-10T08:23:51;21.17;;;10.63;;
81896;SDS011;71360;43.506;1.500;2024-01-10T08:26:18;20.20;;;10.63;;
81896;SDS011;71360;43.506;1.500;2024-01-10T08:28:44;23.60;;;11.90;;
81896;SDS011;71360;43.506;1.500;2024-01-10T08:31:09;24.83;;;12.03;;
81896;SDS011;71360;43.506;1.500;2024-01-10T08:33:34;25.53;;;12.67;;
81896;SDS011;71360;43.506;1.500;2024-01-10T08:36:00;24.97;;;12.53;;
81896;SDS011;71360;43.506;1.500;2024-01-10T08:38:25;26.40;;;11.77;;
81896;SDS011;71360;43.506;1.500;2024-01-10T08:40:51;21.97;;;11.00;;
81896;SDS011;71360;43.506;1.500;2024-01-10T08:43:16;21.70;;;11.03;;
81896;SDS011;71360;43.506;1.500;2024-01-10T08:45:43;20.65;;;10.57;;
81896;SDS011;71360;43.506;1.500;2024-01-10T08:48:09;20.08;;;10.30;;
81896;SDS011;71360;43.506;1.500;2024-01-10T08:50:37;20.40;;;10.03;;
81896;SDS011;71360;43.506;1.500;2024-01-10T08:53:02;19.05;;;9.75;;
81896;SDS011;71360;43.506;1.500;2024-01-10T08:55:30;19.90;;;10.00;;
81896;SDS011;71360;43.506;1.500;2024-01-10T08:57:56;18.25;;;9.05;;
81896;SDS011;71360;43.506;1.500;2024-01-10T09:00:21;19.43;;;9.83;;
81896;SDS011;71360;43.506;1.500;2024-01-10T09:02:47;18.92;;;9.63;;
81896;SDS011;71360;43.506;1.500;2024-01-10T09:05:12;18.43;;;9.33;;
81896;SDS011;71360;43.506;1.500;2024-01-10T09:07:38;18.17;;;9.13;;
81896;SDS011;71360;43.506;1.500;2024-01-10T09:10:04;18.05;;;9.38;;
81896;SDS011;71360;43.506;1.500;2024-01-10T09:12:30;18.75;;;9.82;;
81896;SDS011;71360;43.506;1.500;2024-01-10T09:14:56;19.00;;;9.50;;
81896;SDS011;71360;43.506;1.500;2024-01-10T09:17:21;17.33;;;9.67;;
81896;SDS011;71360;43.506;1.500;2024-01-10T09:19:47;21.30;;;9.80;;
81896;SDS011;71360;43.506;1.500;2024-01-10T09:22:12;19.43;;;9.10;;
81896;SDS011;71360;43.506;1.500;2024-01-10T09:24:38;19.38;;;9.73;;
81896;SDS011;71360;43.506;1.500;2024-01-10T09:27:04;18.37;;;9.80;;
81896;SDS011;71360;43.506;1.500;2024-01-10T09:29:29;17.70;;;9.57;;
81896;SDS011;71360;43.506;1.500;2024-01-10T09:31:56;17.52;;;9.38;;
81896;SDS011;71360;43.506;1.500;2024-01-10T09:34:22;17.40;;;9.50;;
81896;SDS011;71360;43.506;1.500;2024-01-10T09:36:47;18.93;;;9.37;;
81896;SDS011;71360;43.506;1.500;2024-01-10T09:39:13;19.57;;;9.47;;
81896;SDS011;71360;43.506;1.500;2024-01-10T09:41:46;18.52;;;9.25;;
81896;SDS011;71360;43.506;1.500;2024-01-10T09:44:19;17.75;;;9.45;;
81896;SDS011;71360;43.506;1.500;2024-01-10T09:46:48;17.80;;;9.23;;
81896;SDS011;71360;43.506;1.500;2024-01-10T09:49:16;15.77;;;8.68;;
81896;SDS011;71360;43.506;1.500;2024-01-10T09:51:42;18.95;;;9.40;;
81896;SDS011;71360;43.506;1.500;2024-01-10T09:54:07;16.70;;;9.50;;
81896;SDS011;71360;43.506;1.500;2024-01-10T09:56:33;17.67;;;9.40;;
81896;SDS011;71360;43.506;1.500;2024-01-10T09:58:59;18.07;;;9.37;;
81896;SDS011;71360;43.506;1.500;2024-01-10T10:01:26;20.55;;;9.48;;
81896;SDS011;71360;43.506;1.500;2024-01-10T10:03:52;19.07;;;9.10;;
81896;SDS011;71360;43.506;1.500;2024-01-10T10:06:20;20.10;;;9.02;;
81896;SDS011;71360;43.506;1.500;2024-01-10T10:08:46;20.75;;;11.30;;
81896;SDS011;71360;43.506;1.500;2024-01-10T10:11:12;28.33;;;14.20;;
81896;SDS011;71360;43.506;1.500;2024-01-10T10:13:41;28.15;;;15.07;;
81896;SDS011;71360;43.506;1.500;2024-01-10T10:16:07;18.13;;;9.45;;
81896;SDS011;71360;43.506;1.500;2024-01-10T10:18:34;40.85;;;24.50;;
81896;SDS011;71360;43.506;1.500;2024-01-10T10:21:10;29.07;;;16.30;;
81896;SDS011;71360;43.506;1.500;2024-01-10T10:23:41;23.02;;;13.05;;
81896;SDS011;71360;43.506;1.500;2024-01-10T10:26:12;19.92;;;11.43;;
81896;SDS011;71360;43.506;1.500;2024-01-10T10:28:47;22.27;;;11.32;;
81896;SDS011;71360;43.506;1.500;2024-01-10T10:31:13;19.75;;;10.35;;
81896;SDS011;71360;43.506;1.500;2024-01-10T10:33:40;22.43;;;12.90;;
81896;SDS011;71360;43.506;1.500;2024-01-10T10:36:06;25.40;;;13.65;;
81896;SDS011;71360;43.506;1.500;2024-01-10T10:38:32;23.73;;;12.55;;
81896;SDS011;71360;43.506;1.500;2024-01-10T10:40:58;24.53;;;13.80;;
81896;SDS011;71360;43.506;1.500;2024-01-10T10:43:25;25.40;;;12.93;;
81896;SDS011;71360;43.506;1.500;2024-01-10T10:45:51;23.52;;;12.23;;
81896;SDS011;71360;43.506;1.500;2024-01-10T10:48:17;23.10;;;12.83;;
81896;SDS011;71360;43.506;1.500;2024-01-10T10:51:32;24.70;;;12.35;;
81896;SDS011;71360;43.506;1.500;2024-01-10T10:53:41;22.88;;;10.95;;
81896;SDS011;71360;43.506;1.500;2024-01-10T10:56:10;19.42;;;10.43;;
81896;SDS011;71360;43.506;1.500;2024-01-10T10:58:41;19.85;;;10.98;;
81896;SDS011;71360;43.506;1.500;2024-01-10T11:01:08;19.30;;;9.70;;
81896;SDS011;71360;43.506;1.500;2024-01-10T11:03:37;17.48;;;9.48;;
81896;SDS011;71360;43.506;1.500;2024-01-10T11:06:05;16.98;;;9.40;;
81896;SDS011;71360;43.506;1.500;2024-01-10T11:08:38;18.55;;;9.52;;
81896;SDS011;71360;43.506;1.500;2024-01-10T11:24:12;17.95;;;8.93;;
81896;SDS011;71360;43.506;1.500;2024-01-10T11:26:38;19.87;;;10.03;;
81896;SDS011;71360;43.506;1.500;2024-01-10T11:29:04;17.93;;;9.57;;
81896;SDS011;71360;43.506;1.500;2024-01-10T11:31:31;20.33;;;10.00;;
81896;SDS011;71360;43.506;1.500;2024-01-10T11:33:57;22.88;;;10.75;;
81896;SDS011;71360;43.506;1.500;2024-01-10T11:36:25;18.27;;;9.93;;
81896;SDS011;71360;43.506;1.500;2024-01-10T11:41:22;20.38;;;9.75;;
81896;SDS011;71360;43.506;1.500;2024-01-10T11:44:30;18.03;;;9.40;;
81896;SDS011;71360;43.506;1.500;2024-01-10T11:49:09;19.58;;;10.70;;
81896;SDS011;71360;43.506;1.500;2024-01-10T11:51:36;21.25;;;10.68;;
81896;SDS011;71360;43.506;1.500;2024-01-10T11:54:02;20.90;;;10.67;;
81896;SDS011;71360;43.506;1.500;2024-01-10T11:56:37;21.23;;;11.18;;
81896;SDS011;71360;43.506;1.500;2024-01-10T11:59:08;22.15;;;11.30;;
81896;SDS011;71360;43.506;1.500;2024-01-10T12:01:38;19.73;;;10.80;;
81896;SDS011;71360;43.506;1.500;2024-01-10T12:04:05;20.25;;;10.60;;
81896;SDS011;71360;43.506;1.500;2024-01-10T12:06:33;19.10;;;10.50;;
81896;SDS011;71360;43.506;1.500;2024-01-10T12:09:01;21.83;;;11.00;;
81896;SDS011;71360;43.506;1.500;2024-01-10T12:11:33;19.83;;;10.90;;
81896;SDS011;71360;43.506;1.500;2024-01-10T12:13:59;19.00;;;10.30;;
81896;SDS011;71360;43.506;1.500;2024-01-10T12:16:25;19.30;;;10.63;;
81896;SDS011;71360;43.506;1.500;2024-01-10T12:18:50;18.13;;;11.07;;
81896;SDS011;71360;43.506;1.500;2024-01-10T12:21:16;23.20;;;12.77;;
81896;SDS011;71360;43.506;1.500;2024-01-10T12:23:42;22.23;;;11.90;;
81896;SDS011;71360;43.506;1.500;2024-01-10T12:26:09;23.15;;;12.23;;
81896;SDS011;71360;43.506;1.500;2024-01-10T12:28:37;23.27;;;12.38;;
81896;SDS011;71360;43.506;1.500;2024-01-10T12:31:04;27.58;;;13.07;;
81896;SDS011;71360;43.506;1.500;2024-01-10T12:33:32;27.30;;;13.83;;
81896;SDS011;71360;43.506;1.500;2024-01-10T12:36:08;21.48;;;11.40;;
81896;SDS011;71360;43.506;1.500;2024-01-10T12:38:35;26.95;;;13.63;;
81896;SDS011;71360;43.506;1.500;2024-01-10T12:41:01;25.85;;;14.07;;
81896;SDS011;71360;43.506;1.500;2024-01-10T12:43:29;27.00;;;14.83;;
81896;SDS011;71360;43.506;1.500;2024-01-10T12:48:29;33.28;;;18.60;;
81896;SDS011;71360;43.506;1.500;2024-01-10T12:50:55;32.60;;;15.43;;
81896;SDS011;71360;43.506;1.500;2024-01-10T12:53:21;57.67;;;21.50;;
81896;SDS011;71360;43.506;1.500;2024-01-10T12:55:46;49.40;;;22.00;;
81896;SDS011;71360;43.506;1.500;2024-01-10T12:58:12;35.92;;;19.80;;
81896;SDS011;71360;43.506;1.500;2024-01-10T13:00:37;31.83;;;17.63;;
81896;SDS011;71360;43.506;1.500;2024-01-10T13:03:04;26.00;;;14.90;;
81896;SDS011;71360;43.506;1.500;2024-01-10T13:05:31;32.30;;;18.60;;
81896;SDS011;71360;43.506;1.500;2024-01-10T13:07:56;26.23;;;14.57;;
81896;SDS011;71360;43.506;1.500;2024-01-10T13:10:22;24.20;;;14.23;;
81896;SDS011;71360;43.506;1.500;2024-01-10T13:12:47;26.90;;;14.35;;
81896;SDS011;71360;43.506;1.500;2024-01-10T13:15:13;25.13;;;13.07;;
81896;SDS011;71360;43.506;1.500;2024-01-10T13:17:38;26.43;;;14.00;;
81896;SDS011;71360;43.506;1.500;2024-01-10T13:20:05;25.70;;;14.05;;
81896;SDS011;71360;43.506;1.500;2024-01-10T13:22:31;28.20;;;13.25;;
81896;SDS011;71360;43.506;1.500;2024-01-10T13:24:56;23.07;;;13.37;;
81896;SDS011;71360;43.506;1.500;2024-01-10T13:27:22;27.70;;;14.00;;
81896;SDS011;71360;43.506;1.500;2024-01-10T13:29:47;23.23;;;12.83;;
81896;SDS011;71360;43.506;1.500;2024-01-10T13:32:13;27.10;;;13.57;;
81896;SDS011;71360;43.506;1.500;2024-01-10T13:34:40;23.50;;;13.13;;
81896;SDS011;71360;43.506;1.500;2024-01-10T13:37:06;25.92;;;13.15;;
81896;SDS011;71360;43.506;1.500;2024-01-10T13:39:32;25.45;;;14.50;;
81896;SDS011;71360;43.506;1.500;2024-01-10T13:41:58;26.87;;;14.13;;
81896;SDS011;71360;43.506;1.500;2024-01-10T13:44:23;28.40;;;15.13;;
81896;SDS011;71360;43.506;1.500;2024-01-10T13:46:49;27.20;;;14.18;;
81896;SDS011;71360;43.506;1.500;2024-01-10T13:49:15;25.65;;;13.50;;
81896;SDS011;71360;43.506;1.500;2024-01-10T13:51:40;23.90;;;12.97;;
81896;SDS011;71360;43.506;1.500;2024-01-10T13:54:06;21.13;;;11.20;;
81896;SDS011;71360;43.506;1.500;2024-01-10T13:56:31;21.73;;;12.30;;
81896;SDS011;71360;43.506;1.500;2024-01-10T13:58:59;22.30;;;12.40;;
81896;SDS011;71360;43.506;1.500;2024-01-10T14:01:24;22.13;;;11.65;;
81896;SDS011;71360;43.506;1.500;2024-01-10T14:03:51;21.17;;;11.43;;
81896;SDS011;71360;43.506;1.500;2024-01-10T14:06:16;22.42;;;11.73;;
81896;SDS011;71360;43.506;1.500;2024-01-10T14:08:42;20.90;;;11.20;;
81896;SDS011;71360;43.506;1.500;2024-01-10T14:11:08;20.90;;;11.43;;
81896;SDS011;71360;43.506;1.500;2024-01-10T14:13:34;20.70;;;10.60;;
81896;SDS011;71360;43.506;1.500;2024-01-10T14:16:00;21.23;;;11.63;;
81896;SDS011;71360;43.506;1.500;2024-01-10T14:18:26;24.33;;;12.00;;
81896;SDS011;71360;43.506;1.500;2024-01-10T14:20:51;19.00;;;11.13;;
81896;SDS011;71360;43.506;1.500;2024-01-10T14:23:17;20.93;;;12.03;;
81896;SDS011;71360;43.506;1.500;2024-01-10T14:25:45;20.60;;;11.23;;
81896;SDS011;71360;43.506;1.500;2024-01-10T14:28:11;19.15;;;11.48;;
81896;SDS011;71360;43.506;1.500;2024-01-10T14:30:37;20.43;;;11.53;;
81896;SDS011;71360;43.506;1.500;2024-01-10T14:33:03;21.37;;;11.17;;
81896;SDS011;71360;43.506;1.500;2024-01-10T14:35:29;20.55;;;11.07;;
81896;SDS011;71360;43.506;1.500;2024-01-10T14:37:54;22.33;;;11.30;;